createdAt,value
2018-06-08T00:00:00.221Z,102.33
2018-06-08T00:02:28.512Z,108.47
2018-06-08T00:04:56.844Z,103.87
2018-06-08T00:07:25.124Z,103.40
2018-06-08T00:09:53.460Z,106.67
2018-06-08T00:12:21.759Z,107.30
2018-06-08T00:14:50.181Z,107.40
2018-06-08T00:17:18.451Z,109.57
2018-06-08T00:19:46.750Z,99.40
2018-06-08T00:22:15.101Z,102.13
2018-06-08T00:24:43.454Z,106.50
2018-06-08T00:27:11.756Z,102.50
2018-06-08T00:29:40.071Z,99.00
2018-06-08T00:32:08.359Z,95.97
2018-06-08T00:34:36.659Z,97.73
2018-06-08T00:37:04.942Z,96.07
2018-06-08T00:39:33.286Z,97.43
2018-06-08T00:42:01.570Z,91.50
2018-06-08T00:44:29.876Z,96.30
2018-06-08T00:46:58.166Z,88.40
2018-06-08T00:49:26.456Z,79.77
2018-06-08T00:51:54.787Z,85.73
2018-06-08T00:54:23.067Z,87.30
2018-06-08T00:57:03.105Z,92.63
2018-06-08T00:59:31.400Z,92.43
2018-06-08T01:01:59.701Z,93.27
2018-06-08T01:04:27.993Z,95.87
2018-06-08T01:06:56.070Z,95.13
2018-06-08T01:09:26.104Z,84.97
2018-06-08T01:11:54.711Z,89.83
2018-06-08T01:14:29.571Z,89.53
2018-06-08T01:16:58.442Z,87.17
2018-06-08T01:19:26.917Z,90.07
2018-06-08T01:21:55.242Z,93.53
2018-06-08T01:24:23.522Z,92.17
2018-06-08T01:26:51.814Z,96.23
2018-06-08T01:29:20.115Z,103.03
2018-06-08T01:31:48.520Z,103.67
2018-06-08T01:34:16.837Z,104.53
2018-06-08T01:36:45.159Z,103.60
2018-06-08T01:39:13.423Z,107.03
2018-06-08T01:41:41.801Z,111.43
2018-06-08T01:44:10.096Z,118.67
2018-06-08T01:46:38.453Z,115.33
2018-06-08T01:49:06.779Z,115.27
2018-06-08T01:51:35.082Z,109.70
2018-06-08T01:54:03.409Z,124.10
2018-06-08T01:56:31.710Z,131.33
2018-06-08T01:59:00.037Z,132.70
2018-06-08T02:01:28.310Z,131.40
2018-06-08T02:03:56.626Z,133.10
2018-06-08T02:06:24.944Z,133.27
2018-06-08T02:08:53.359Z,135.93
2018-06-08T02:11:21.685Z,143.77
2018-06-08T02:13:49.986Z,149.23
2018-06-08T02:16:18.286Z,146.60
2018-06-08T02:18:46.331Z,151.33
2018-06-08T02:21:14.684Z,148.83
2018-06-08T02:23:42.978Z,132.77
2018-06-08T02:26:11.297Z,145.80
2018-06-08T02:28:39.598Z,145.00
2018-06-08T02:31:09.164Z,142.53
2018-06-08T02:33:37.468Z,145.77
2018-06-08T02:36:05.806Z,142.77
2018-06-08T02:38:34.130Z,136.83
2018-06-08T02:41:02.448Z,143.77
2018-06-08T02:43:30.726Z,143.97
2018-06-08T02:45:59.064Z,145.93
2018-06-08T02:48:27.375Z,156.47
2018-06-08T02:50:55.711Z,160.77
2018-06-08T02:53:27.637Z,142.03
2018-06-08T02:55:55.972Z,156.10
2018-06-08T02:58:24.309Z,165.73
2018-06-08T03:00:52.631Z,160.20
2018-06-08T03:03:20.923Z,166.13
2018-06-08T03:05:49.248Z,173.77
2018-06-08T03:08:17.544Z,172.70
2018-06-08T03:10:45.866Z,183.80
2018-06-08T03:13:14.305Z,172.57
2018-06-08T03:15:48.953Z,168.53
2018-06-08T03:18:17.288Z,186.50
2018-06-08T03:20:45.341Z,188.70
2018-06-08T03:23:13.661Z,179.43
2018-06-08T03:25:42.008Z,177.60
2018-06-08T03:28:10.335Z,180.27
2018-06-08T03:30:38.679Z,171.00
2018-06-08T03:33:07.326Z,167.87
2018-06-08T03:35:35.637Z,163.67
2018-06-08T03:40:58.493Z,193.53
2018-06-08T03:43:26.817Z,200.73
2018-06-08T03:45:55.052Z,202.57
2018-06-08T03:48:23.367Z,190.43
2018-06-08T03:50:51.672Z,190.50
2018-06-08T03:53:19.962Z,196.67
2018-06-08T03:55:48.293Z,185.63
2018-06-08T03:58:16.636Z,195.80
2018-06-08T04:00:44.935Z,175.50
2018-06-08T04:03:13.293Z,165.63
2018-06-08T04:05:41.610Z,146.67
2018-06-08T04:08:09.898Z,133.20
2018-06-08T04:10:38.252Z,135.87
2018-06-08T04:13:06.553Z,147.87
2018-06-08T04:15:34.858Z,137.27
2018-06-08T04:18:03.169Z,139.07
2018-06-08T04:20:31.474Z,136.60
2018-06-08T04:22:59.821Z,123.60
2018-06-08T04:28:21.921Z,95.53
2018-06-08T04:30:50.437Z,89.80
2018-06-08T04:33:18.777Z,82.33
2018-06-08T04:35:47.077Z,83.57
2018-06-08T04:38:15.384Z,84.07
2018-06-08T04:40:43.884Z,87.03
2018-06-08T04:43:12.207Z,88.80
2018-06-08T04:45:40.529Z,87.10
2018-06-08T04:48:08.862Z,89.27
2018-06-08T04:53:31.721Z,80.13
2018-06-08T04:56:00.299Z,85.77
2018-06-08T04:58:28.627Z,87.33
2018-06-08T05:00:56.926Z,79.40
2018-06-08T05:03:25.256Z,82.53
2018-06-08T05:05:53.584Z,83.60
2018-06-08T05:08:21.883Z,78.57
2018-06-08T05:10:50.207Z,73.30
2018-06-08T05:13:18.768Z,76.23
2018-06-08T05:21:33.151Z,88.33
2018-06-08T05:24:01.457Z,82.13
2018-06-08T05:26:29.801Z,85.07
2018-06-08T05:28:57.892Z,86.10
2018-06-08T05:31:26.228Z,77.47
2018-06-08T05:33:54.537Z,82.90
2018-06-08T05:36:22.876Z,76.90
2018-06-08T05:38:51.208Z,77.10
2018-06-08T05:41:19.577Z,76.37
2018-06-08T05:43:47.892Z,71.70
2018-06-08T05:46:16.391Z,70.53
2018-06-08T05:48:44.755Z,69.37
2018-06-08T05:51:13.089Z,66.10
2018-06-08T05:53:41.722Z,68.53
2018-06-08T05:56:10.236Z,70.37
2018-06-08T06:01:35.128Z,64.50
2018-06-08T06:04:03.435Z,61.57
2018-06-08T06:06:31.761Z,59.60
2018-06-08T06:09:00.118Z,60.90
2018-06-08T06:11:28.588Z,65.57
2018-06-08T06:13:56.927Z,68.50
2018-06-08T06:16:25.253Z,67.73
2018-06-08T06:18:53.568Z,66.77
2018-06-08T06:21:22.014Z,68.07
2018-06-08T06:23:50.328Z,68.27
2018-06-08T06:26:18.630Z,75.97
2018-06-08T06:28:46.882Z,64.33
2018-06-08T06:31:15.204Z,67.53
2018-06-08T06:33:43.502Z,73.27
2018-06-08T06:36:11.915Z,70.87
2018-06-08T06:38:40.253Z,72.43
2018-06-08T06:41:08.643Z,66.30
2018-06-08T06:43:37.176Z,70.00
2018-06-08T06:46:05.698Z,70.52
2018-06-08T06:48:34.579Z,68.30
2018-06-08T06:51:03.502Z,68.50
2018-06-08T06:53:32.402Z,71.45
2018-06-08T06:56:00.724Z,65.90
2018-06-08T06:58:29.627Z,66.85
2018-06-08T07:00:57.938Z,64.77
2018-06-08T07:03:26.856Z,65.85
2018-06-08T07:05:56.335Z,62.35
2018-06-08T07:08:25.204Z,60.35
2018-06-08T07:10:54.096Z,63.78
2018-06-08T07:13:22.949Z,59.03
2018-06-08T07:15:51.920Z,62.10
2018-06-08T07:18:20.895Z,57.48
2018-06-08T07:20:49.844Z,54.77
2018-06-08T07:23:18.211Z,54.57
2018-06-08T07:25:47.143Z,55.45
2018-06-08T07:28:15.568Z,53.97
2018-06-08T07:30:44.027Z,52.40
2018-06-08T07:33:13.023Z,53.33
2018-06-08T07:35:41.695Z,54.18
2018-06-08T07:38:10.731Z,49.85
2018-06-08T07:40:39.675Z,50.43
2018-06-08T07:43:08.877Z,48.55
2018-06-08T07:45:37.766Z,47.88
2018-06-08T07:48:07.074Z,48.98
2018-06-08T07:50:36.005Z,46.37
2018-06-08T07:53:05.535Z,49.20
2018-06-08T07:55:34.479Z,51.25
2018-06-08T07:58:03.416Z,45.70
2018-06-08T08:00:32.325Z,48.83
2018-06-08T08:03:00.667Z,51.17
2018-06-08T08:05:29.597Z,45.33
2018-06-08T08:07:58.572Z,49.08
2018-06-08T08:10:27.547Z,45.17
2018-06-08T08:12:56.441Z,44.48
2018-06-08T08:15:25.485Z,47.40
2018-06-08T08:17:54.383Z,44.77
2018-06-08T08:20:23.332Z,48.48
2018-06-08T08:22:52.405Z,46.48
2018-06-08T08:25:21.308Z,46.13
2018-06-08T08:27:50.216Z,50.98
2018-06-08T08:30:19.096Z,44.95
2018-06-08T08:32:48.018Z,47.23
2018-06-08T08:35:16.932Z,46.65
2018-06-08T08:37:45.568Z,51.53
2018-06-08T08:40:14.471Z,52.48
2018-06-08T08:42:43.367Z,52.70
2018-06-08T08:45:12.277Z,54.35
2018-06-08T08:47:41.247Z,53.70
2018-06-08T08:50:10.142Z,53.87
2018-06-08T08:52:39.048Z,48.38
2018-06-08T08:55:08.242Z,52.43
2018-06-08T08:57:37.146Z,52.15
2018-06-08T09:00:06.104Z,54.23
2018-06-08T09:02:42.013Z,53.75
2018-06-08T09:05:10.929Z,51.68
2018-06-08T09:07:39.821Z,52.33
2018-06-08T09:10:08.743Z,50.95
2018-06-08T09:12:37.676Z,48.78
2018-06-08T09:15:06.572Z,46.63
2018-06-08T09:17:35.509Z,50.80
2018-06-08T09:20:04.205Z,53.05
2018-06-08T09:22:33.317Z,50.38
2018-06-08T09:25:03.046Z,48.20
2018-06-08T09:27:33.528Z,51.05
2018-06-08T09:30:02.378Z,51.68
2018-06-08T09:32:31.307Z,45.55
2018-06-08T09:35:00.185Z,49.13
2018-06-08T09:37:29.115Z,50.67
2018-06-08T09:39:57.989Z,45.12
2018-06-08T09:42:27.084Z,48.35
2018-06-08T09:44:56.031Z,47.15
2018-06-08T09:47:24.943Z,48.05
2018-06-08T09:49:54.183Z,43.48
2018-06-08T09:52:23.096Z,43.87
2018-06-08T09:54:52.077Z,45.28
2018-06-08T09:57:21.240Z,48.95
2018-06-08T09:59:50.175Z,43.60
2018-06-08T10:02:19.111Z,42.85
2018-06-08T10:04:48.044Z,46.25
2018-06-08T10:07:16.955Z,44.13
2018-06-08T10:09:45.854Z,41.77
2018-06-08T10:12:14.444Z,42.93
2018-06-08T10:14:43.372Z,42.17
2018-06-08T10:17:12.250Z,46.73
2018-06-08T10:19:41.152Z,46.45
2018-06-08T10:22:10.040Z,47.80
2018-06-08T10:24:38.941Z,44.98
2018-06-08T10:27:07.837Z,50.08
2018-06-08T10:29:36.817Z,47.90
2018-06-08T10:32:06.039Z,47.35
2018-06-08T10:34:34.885Z,45.52
2018-06-08T10:37:04.117Z,46.45
2018-06-08T10:39:33.064Z,45.15
2018-06-08T10:42:02.041Z,45.95
2018-06-08T10:44:30.974Z,47.58
2018-06-08T10:46:59.850Z,47.95
2018-06-08T10:58:09.576Z,48.78
2018-06-08T11:00:38.517Z,49.63
2018-06-08T11:03:07.131Z,44.03
2018-06-08T11:05:36.068Z,46.05
2018-06-08T11:08:05.006Z,43.75
2018-06-08T11:10:33.974Z,45.15
2018-06-08T11:13:02.926Z,43.80
2018-06-08T11:15:31.860Z,39.23
2018-06-08T11:18:03.565Z,46.20
2018-06-08T11:20:32.466Z,41.60
2018-06-08T11:23:01.370Z,44.27
2018-06-08T11:25:30.272Z,42.00
2018-06-08T11:27:59.149Z,41.65
2018-06-08T11:30:28.019Z,43.60
2018-06-08T11:32:56.877Z,41.40
2018-06-08T11:35:25.767Z,43.17
2018-06-08T11:37:54.751Z,37.60
2018-06-08T11:40:23.683Z,39.15
2018-06-08T11:42:52.593Z,37.50
2018-06-08T11:45:21.577Z,36.77
2018-06-08T11:47:50.553Z,37.58
2018-06-08T11:50:19.662Z,35.33
2018-06-08T11:52:48.382Z,37.73
2018-06-08T11:55:16.796Z,40.78
2018-06-08T11:57:45.690Z,33.98
2018-06-08T12:00:14.649Z,32.98
2018-06-08T12:02:43.726Z,35.35
2018-06-08T12:05:12.661Z,34.25
2018-06-08T12:07:41.540Z,34.45
2018-06-08T12:10:10.445Z,31.57
2018-06-08T12:12:39.314Z,30.30
2018-06-08T12:15:08.203Z,31.60
2018-06-08T12:17:37.126Z,32.48
2018-06-08T12:20:05.845Z,31.02
2018-06-08T12:22:34.692Z,31.20
2018-06-08T12:25:03.599Z,31.62
2018-06-08T12:27:32.643Z,28.40
2018-06-08T12:30:01.561Z,33.00
2018-06-08T12:32:30.380Z,29.07
2018-06-08T12:34:59.221Z,30.10
2018-06-08T12:37:28.095Z,29.55
2018-06-08T12:39:56.949Z,28.67
2018-06-08T12:42:25.848Z,27.98
2018-06-08T12:44:54.722Z,29.27
2018-06-08T12:47:23.476Z,30.12
2018-06-08T12:49:52.334Z,28.60
2018-06-08T12:52:21.187Z,30.57
2018-06-08T12:54:50.095Z,31.80
2018-06-08T12:57:18.943Z,29.70
2018-06-08T12:59:47.807Z,30.05
2018-06-08T13:02:16.705Z,31.87
2018-06-08T13:04:45.613Z,30.00
2018-06-08T13:07:14.597Z,31.20
2018-06-08T13:09:43.481Z,31.87
2018-06-08T13:12:12.507Z,31.77
2018-06-08T13:14:41.368Z,30.55
2018-06-08T13:17:10.324Z,27.20
2018-06-08T13:19:39.248Z,28.10
2018-06-08T13:22:08.132Z,26.27
2018-06-08T13:24:37.027Z,26.25
2018-06-08T13:27:05.903Z,26.68
2018-06-08T13:29:34.851Z,25.35
2018-06-08T13:32:03.733Z,25.43
2018-06-08T13:34:32.641Z,23.25
2018-06-08T13:37:01.574Z,23.32
2018-06-08T13:39:30.532Z,22.62
2018-06-08T13:41:59.557Z,22.52
2018-06-08T13:44:28.473Z,23.00
2018-06-08T13:46:57.418Z,21.77
2018-06-08T13:49:26.322Z,22.95
2018-06-08T13:51:55.215Z,23.05
2018-06-08T13:54:24.098Z,22.10
2018-06-08T13:56:53.012Z,20.57
2018-06-08T13:59:21.864Z,16.95
2018-06-08T14:01:50.830Z,16.62
2018-06-08T14:04:19.721Z,18.20
2018-06-08T14:06:48.580Z,17.17
2018-06-08T14:09:18.117Z,18.15
2018-06-08T14:11:48.532Z,17.50
2018-06-08T14:14:17.583Z,19.73
2018-06-08T14:16:46.761Z,14.53
2018-06-08T14:19:15.848Z,17.17
2018-06-08T14:21:44.788Z,20.32
2018-06-08T14:24:13.841Z,17.70
2018-06-08T14:26:42.748Z,19.05
2018-06-08T14:29:11.816Z,20.92
2018-06-08T14:31:40.850Z,16.25
2018-06-08T14:34:09.749Z,18.10
2018-06-08T14:36:38.629Z,16.15
2018-06-08T14:39:08.327Z,15.15
2018-06-08T14:41:37.571Z,14.23
2018-06-08T14:44:07.321Z,12.70
2018-06-08T14:46:36.536Z,11.88
2018-06-08T14:49:05.388Z,13.70
2018-06-08T14:51:34.272Z,12.45
2018-06-08T14:54:03.413Z,14.15
2018-06-08T14:56:32.317Z,14.93
2018-06-08T14:59:01.250Z,14.07
2018-06-08T15:01:30.288Z,13.85
2018-06-08T15:03:58.553Z,13.90
2018-06-08T15:06:27.462Z,12.63
2018-06-08T15:08:56.383Z,13.22
2018-06-08T15:11:25.265Z,14.03
2018-06-08T15:13:54.140Z,11.97
2018-06-08T15:16:23.217Z,16.80
2018-06-08T15:18:52.080Z,12.82
2018-06-08T15:21:21.008Z,10.30
2018-06-08T15:23:49.931Z,8.28
2018-06-08T15:26:18.808Z,8.00
2018-06-08T15:28:47.692Z,10.32
2018-06-08T15:31:16.542Z,9.03
2018-06-08T15:33:45.390Z,9.58
2018-06-08T15:36:14.282Z,10.85
2018-06-08T15:38:42.930Z,10.82
2018-06-08T15:41:11.854Z,12.23
2018-06-08T15:43:40.701Z,10.78
2018-06-08T15:46:09.579Z,14.23
2018-06-08T15:48:38.549Z,12.73
2018-06-08T15:51:07.460Z,15.85
2018-06-08T15:53:36.360Z,14.60
2018-06-08T15:56:05.417Z,15.60
2018-06-08T15:58:34.394Z,17.02
2018-06-08T16:01:03.282Z,17.15
2018-06-08T16:03:32.169Z,21.27
2018-06-08T16:06:01.068Z,19.98
2018-06-08T16:08:30.049Z,15.88
2018-06-08T16:10:59.155Z,16.48
2018-06-08T16:13:28.048Z,16.27
2018-06-08T16:15:56.949Z,14.95
2018-06-08T16:18:25.837Z,16.45
2018-06-08T16:20:54.739Z,17.07
2018-06-08T16:23:23.354Z,15.25
2018-06-08T16:25:52.281Z,16.90
2018-06-08T16:28:21.213Z,15.45
2018-06-08T16:30:50.405Z,15.00
2018-06-08T16:33:19.577Z,21.00
2018-06-08T16:35:48.465Z,16.37
2018-06-08T16:38:17.403Z,16.77
2018-06-08T16:40:46.325Z,18.57
2018-06-08T16:43:15.224Z,18.37
2018-06-08T16:45:44.095Z,18.90
2018-06-08T16:48:12.981Z,19.90
2018-06-08T16:50:42.066Z,21.25
2018-06-08T16:53:11.004Z,20.70
2018-06-08T16:55:39.935Z,20.45
2018-06-08T16:58:10.948Z,19.15
2018-06-08T17:00:43.752Z,20.50
2018-06-08T17:03:13.887Z,21.07
2018-06-08T17:05:42.759Z,20.25
2018-06-08T17:08:11.651Z,20.17
2018-06-08T17:10:40.602Z,20.82
2018-06-08T17:13:09.506Z,20.27
2018-06-08T17:15:38.436Z,19.17
2018-06-08T17:18:07.385Z,23.47
2018-06-08T17:20:36.455Z,24.67
2018-06-08T17:23:05.426Z,25.30
2018-06-08T17:25:34.408Z,20.68
2018-06-08T17:28:03.367Z,19.87
2018-06-08T17:30:32.288Z,23.55
2018-06-08T17:33:01.227Z,20.57
2018-06-08T17:35:30.078Z,23.55
2018-06-08T17:37:59.006Z,22.42
2018-06-08T17:40:27.904Z,20.77
2018-06-08T17:42:56.796Z,23.00
2018-06-08T17:45:25.720Z,24.63
2018-06-08T17:47:54.649Z,23.32
2018-06-08T17:50:23.575Z,20.85
2018-06-08T17:52:52.460Z,22.40
2018-06-08T17:55:21.365Z,22.75
2018-06-08T17:57:50.295Z,22.82
2018-06-08T18:00:19.152Z,23.25
2018-06-08T18:02:48.044Z,21.68
2018-06-08T18:05:16.962Z,23.92
2018-06-08T18:07:45.913Z,20.95
2018-06-08T18:10:14.825Z,24.02
2018-06-08T18:12:43.743Z,27.02
2018-06-08T18:15:12.629Z,21.37
2018-06-08T18:17:41.344Z,22.20
2018-06-08T18:20:10.712Z,23.57
2018-06-08T18:22:39.640Z,24.18
2018-06-08T18:25:08.308Z,19.67
2018-06-08T18:27:37.242Z,20.05
2018-06-08T18:30:06.440Z,21.48
2018-06-08T18:32:35.297Z,21.45
2018-06-08T18:35:04.292Z,21.85
2018-06-08T18:37:33.213Z,22.67
2018-06-08T18:40:02.121Z,21.52
2018-06-08T18:42:31.050Z,18.05
2018-06-08T18:44:59.925Z,25.92
2018-06-08T18:47:28.840Z,23.57
2018-06-08T18:49:57.752Z,25.32
2018-06-08T18:52:26.681Z,24.65
2018-06-08T18:54:55.532Z,26.23
2018-06-08T18:57:24.451Z,25.25
2018-06-08T18:59:53.656Z,23.73
2018-06-08T19:02:22.548Z,23.92
2018-06-08T19:04:51.568Z,22.60
2018-06-08T19:07:20.475Z,28.10
2018-06-08T19:09:49.400Z,26.35
2018-06-08T19:12:18.324Z,26.37
2018-06-08T19:14:47.208Z,25.60
2018-06-08T19:17:16.126Z,24.98
2018-06-08T19:19:45.054Z,25.00
2018-06-08T19:22:13.935Z,27.02
2018-06-08T19:24:43.068Z,29.20
2018-06-08T19:27:11.913Z,27.75
2018-06-08T19:29:40.793Z,28.30
2018-06-08T19:32:09.719Z,29.27
2018-06-08T19:34:38.649Z,26.57
2018-06-08T19:37:07.567Z,26.60
2018-06-08T19:39:36.472Z,27.05
2018-06-08T19:42:05.397Z,27.32
2018-06-08T19:44:34.321Z,25.40
2018-06-08T19:47:03.228Z,24.35
2018-06-08T19:49:32.152Z,24.95
2018-06-08T19:52:01.068Z,24.02
2018-06-08T19:54:29.949Z,23.47
2018-06-08T19:56:58.854Z,25.72
2018-06-08T19:59:28.041Z,23.65
2018-06-08T20:01:56.928Z,23.65
2018-06-08T20:07:00.788Z,25.50
2018-06-08T20:09:29.829Z,26.95
2018-06-08T20:11:58.715Z,25.55
2018-06-08T20:14:36.764Z,26.15
2018-06-08T20:17:05.675Z,27.48
2018-06-08T20:19:34.640Z,28.12
2018-06-08T20:22:03.743Z,24.30
2018-06-08T20:24:32.668Z,28.27
2018-06-08T20:27:01.693Z,27.20
2018-06-08T20:29:39.353Z,27.77
2018-06-08T20:32:08.252Z,28.25
2018-06-08T20:34:37.206Z,29.00
2018-06-08T20:37:06.117Z,28.23
2018-06-08T20:39:34.987Z,29.32
2018-06-08T20:42:03.642Z,30.05
2018-06-08T20:44:32.614Z,26.48
2018-06-08T20:47:01.534Z,28.12
2018-06-08T20:49:30.399Z,29.37
2018-06-08T20:51:59.350Z,26.00
2018-06-08T20:54:28.315Z,27.30
2018-06-08T20:57:08.502Z,25.02
2018-06-08T20:59:37.546Z,25.88
2018-06-08T21:02:06.800Z,24.67
2018-06-08T21:04:35.829Z,28.17
2018-06-08T21:07:04.301Z,31.23
2018-06-08T21:09:33.197Z,26.52
2018-06-08T21:12:01.958Z,28.12
2018-06-08T21:14:30.867Z,31.15
2018-06-08T21:16:59.967Z,26.55
2018-06-08T21:19:28.816Z,28.95
2018-06-08T21:21:57.714Z,32.55
2018-06-08T21:24:26.215Z,32.17
2018-06-08T21:26:55.419Z,30.10
2018-06-08T21:29:24.540Z,29.32
2018-06-08T21:31:53.210Z,30.20
2018-06-08T21:34:22.282Z,27.05
2018-06-08T21:36:51.066Z,25.60
2018-06-08T21:39:20.286Z,36.85
2018-06-08T21:41:52.097Z,33.43
2018-06-08T21:44:20.738Z,29.82
2018-06-08T21:46:49.940Z,28.60
2018-06-08T21:49:19.283Z,30.48
2018-06-08T21:51:48.396Z,31.37
2018-06-08T21:54:17.286Z,25.35
2018-06-08T21:56:55.439Z,31.93
2018-06-08T21:59:27.505Z,27.35
2018-06-08T22:01:56.866Z,28.60
2018-06-08T22:04:26.387Z,24.90
2018-06-08T22:06:58.014Z,29.75
2018-06-08T22:09:35.849Z,26.35
2018-06-08T22:12:05.252Z,23.50
2018-06-08T22:14:34.440Z,24.50
2018-06-08T22:17:06.646Z,26.45
2018-06-08T22:19:35.548Z,29.70
2018-06-08T22:22:04.398Z,25.45
2018-06-08T22:24:33.640Z,30.02
2018-06-08T22:27:02.814Z,27.95
2018-06-08T22:29:32.893Z,24.52
2018-06-08T22:32:01.228Z,28.13
2018-06-08T22:34:30.101Z,23.18
2018-06-08T22:36:59.006Z,27.73
2018-06-08T22:39:27.828Z,25.88
2018-06-08T22:41:56.647Z,27.75
2018-06-08T22:44:25.514Z,25.10
2018-06-08T22:46:54.349Z,24.45
2018-06-08T22:49:24.182Z,25.08
2018-06-08T22:51:53.100Z,23.83
2018-06-08T22:54:21.949Z,27.42
2018-06-08T22:56:50.827Z,26.12
2018-06-08T22:59:19.682Z,24.95
2018-06-08T23:01:48.581Z,23.02
2018-06-08T23:04:17.458Z,21.12
2018-06-08T23:06:45.708Z,21.30
2018-06-08T23:09:14.735Z,25.35
2018-06-08T23:11:43.026Z,24.13
2018-06-08T23:14:11.849Z,24.52
2018-06-08T23:16:40.694Z,21.73
2018-06-08T23:19:09.052Z,25.03
2018-06-08T23:21:37.280Z,22.30
2018-06-08T23:24:06.521Z,21.00
2018-06-08T23:26:34.821Z,23.10
2018-06-08T23:29:03.688Z,22.87
2018-06-08T23:31:32.523Z,28.00
2018-06-08T23:34:01.373Z,21.00
2018-06-08T23:36:30.288Z,23.73
2018-06-08T23:38:59.187Z,21.42
2018-06-08T23:41:28.032Z,20.50
2018-06-08T23:43:56.861Z,24.45
2018-06-08T23:46:25.718Z,22.17
2018-06-08T23:48:54.571Z,19.27
2018-06-08T23:51:23.507Z,18.60
2018-06-08T23:53:51.765Z,18.17
2018-06-08T23:56:20.596Z,17.98
2018-06-08T23:58:49.432Z,20.70
